createdAt,value
2022-10-05T00:01:01.632Z,84.41
2022-10-05T00:03:36.848Z,84.56
2022-10-05T00:06:12.350Z,84.56
2022-10-05T00:08:45.262Z,84.37
2022-10-05T00:11:19.292Z,84.34
2022-10-05T00:13:53.088Z,84.16
2022-10-05T00:16:26.146Z,83.94
2022-10-05T00:19:00.361Z,83.94
2022-10-05T00:21:34.807Z,83.92
2022-10-05T00:24:10.545Z,83.84
2022-10-05T00:26:43.525Z,83.81
2022-10-05T00:29:23.366Z,83.81
2022-10-05T00:31:56.618Z,83.54
2022-10-05T00:34:30.678Z,83.57
2022-10-05T00:37:05.925Z,83.62
2022-10-05T00:39:41.518Z,83.68
2022-10-05T00:42:43.534Z,83.74
2022-10-05T00:45:27.638Z,83.68
2022-10-05T00:48:26.353Z,83.53
2022-10-05T00:51:18.614Z,83.60
2022-10-05T00:54:18.220Z,83.32
2022-10-05T00:57:20.292Z,83.34
2022-10-05T01:00:15.889Z,83.43
2022-10-05T01:03:06.220Z,83.30
2022-10-05T01:05:52.291Z,83.32
2022-10-05T01:09:01.168Z,83.42
2022-10-05T01:12:00.751Z,83.36
2022-10-05T01:14:56.887Z,83.36
2022-10-05T01:17:46.769Z,83.18
2022-10-05T01:20:25.007Z,83.13
2022-10-05T01:23:27.694Z,83.15
2022-10-05T01:26:38.873Z,83.02
2022-10-05T01:29:37.734Z,82.77
2022-10-05T01:32:37.887Z,82.99
2022-10-05T01:35:50.364Z,83.23
2022-10-05T01:38:49.297Z,83.52
2022-10-05T01:41:59.052Z,83.65
2022-10-05T01:44:36.625Z,83.86
2022-10-05T01:47:28.897Z,83.86
2022-10-05T01:50:33.340Z,83.77
2022-10-05T01:53:30.095Z,83.89
2022-10-05T01:56:32.608Z,84.10
2022-10-05T01:59:22.110Z,84.28
2022-10-05T02:02:00.455Z,84.51
2022-10-05T02:05:01.600Z,84.61
2022-10-05T02:07:27.531Z,84.67
2022-10-05T02:10:15.058Z,84.90
2022-10-05T02:12:50.447Z,85.04
2022-10-05T02:15:28.431Z,85.27
2022-10-05T02:18:06.063Z,85.27
2022-10-05T02:20:41.616Z,85.38
2022-10-05T02:23:19.269Z,85.30
2022-10-05T02:25:54.232Z,85.43
2022-10-05T02:28:49.774Z,85.44
2022-10-05T02:31:48.097Z,85.58
2022-10-05T02:34:40.056Z,85.74
2022-10-05T02:37:55.265Z,85.93
2022-10-05T02:40:45.199Z,86.01
2022-10-05T02:43:41.771Z,86.07
2022-10-05T02:46:34.548Z,86.26
2022-10-05T02:49:41.866Z,86.31
2022-10-05T02:52:31.831Z,86.33
2022-10-05T02:55:10.630Z,86.68
2022-10-05T02:58:15.408Z,86.79
2022-10-05T03:01:21.844Z,86.81
2022-10-05T03:04:15.250Z,86.99
2022-10-05T03:07:19.321Z,87.13
2022-10-05T03:10:40.150Z,87.08
2022-10-05T03:13:29.554Z,87.25
2022-10-05T03:16:22.236Z,87.32
2022-10-05T03:19:23.606Z,87.59
2022-10-05T03:22:07.589Z,87.82
2022-10-05T03:25:08.385Z,88.02
2022-10-05T03:28:21.190Z,88.16
2022-10-05T03:31:07.659Z,88.16
2022-10-05T03:34:09.932Z,88.17
2022-10-05T03:36:58.458Z,88.32
2022-10-05T03:39:41.917Z,88.42
2022-10-05T03:42:34.406Z,88.54
2022-10-05T03:45:31.245Z,88.63
2022-10-05T03:48:15.750Z,88.66
2022-10-05T03:51:15.919Z,88.81
2022-10-05T03:53:58.898Z,89.15
2022-10-05T03:56:49.497Z,89.32
2022-10-05T03:59:32.801Z,89.43
2022-10-05T04:02:08.756Z,89.63
2022-10-05T04:04:52.477Z,89.59
2022-10-05T04:07:47.705Z,89.75
2022-10-05T04:10:29.181Z,89.77
2022-10-05T04:13:16.318Z,89.68
2022-10-05T04:16:03.539Z,89.71
2022-10-05T04:18:46.882Z,89.82
2022-10-05T04:21:51.734Z,90.10
2022-10-05T04:24:36.618Z,90.04
2022-10-05T04:27:22.887Z,90.15
2022-10-05T04:30:16.596Z,90.29
2022-10-05T04:32:58.467Z,90.25
2022-10-05T04:35:57.709Z,90.22
2022-10-05T04:39:05.510Z,90.32
2022-10-05T04:42:08.810Z,90.50
2022-10-05T04:44:59.065Z,90.50
2022-10-05T04:47:53.481Z,90.72
2022-10-05T04:50:46.198Z,90.95
2022-10-05T04:53:35.335Z,91.07
2022-10-05T04:56:31.195Z,91.26
2022-10-05T04:59:31.227Z,91.39
2022-10-05T05:02:28.737Z,91.58
2022-10-05T05:05:34.596Z,91.62
2022-10-05T05:08:36.559Z,91.97
2022-10-05T05:11:35.664Z,91.93
2022-10-05T05:14:30.911Z,91.78
2022-10-05T05:17:34.136Z,91.87
2022-10-05T05:20:44.191Z,91.81
2022-10-05T05:23:44.587Z,91.55
2022-10-05T05:26:27.839Z,91.57
2022-10-05T05:29:11.483Z,91.48
2022-10-05T05:32:04.234Z,91.15
2022-10-05T05:35:09.329Z,91.13
2022-10-05T05:38:07.998Z,90.69
2022-10-05T05:40:53.174Z,90.35
2022-10-05T05:43:38.910Z,89.89
2022-10-05T05:46:58.213Z,89.72
2022-10-05T05:49:32.421Z,89.51
2022-10-05T05:52:15.785Z,88.90
2022-10-05T05:54:53.913Z,88.14
2022-10-05T05:57:37.673Z,88.03
2022-10-05T06:00:21.999Z,87.58
2022-10-05T06:03:38.946Z,86.94
2022-10-05T06:06:17.393Z,86.78
2022-10-05T06:09:10.440Z,86.26
2022-10-05T06:11:57.352Z,86.01
2022-10-05T06:15:01.916Z,85.89
2022-10-05T06:17:48.674Z,85.84
2022-10-05T06:20:52.706Z,85.23
2022-10-05T06:23:38.830Z,84.79
2022-10-05T06:26:28.401Z,84.08
2022-10-05T06:29:05.479Z,83.64
2022-10-05T06:31:45.749Z,83.61
2022-10-05T06:34:50.517Z,82.75
2022-10-05T06:37:58.083Z,82.35
2022-10-05T06:41:07.110Z,81.63
2022-10-05T06:44:09.370Z,81.21
2022-10-05T06:47:11.209Z,80.64
2022-10-05T06:50:21.771Z,80.55
2022-10-05T06:53:18.639Z,79.91
2022-10-05T06:56:08.554Z,79.37
2022-10-05T06:58:52.308Z,78.80
2022-10-05T07:01:58.866Z,77.37
2022-10-05T07:05:04.315Z,76.96
2022-10-05T07:08:02.360Z,77.03
2022-10-05T07:10:59.457Z,76.07
2022-10-05T07:14:07.750Z,75.36
2022-10-05T07:17:07.687Z,74.95
2022-10-05T07:19:55.099Z,74.87
2022-10-05T07:22:44.805Z,74.63
2022-10-05T07:25:44.283Z,73.98
2022-10-05T07:28:40.638Z,73.31
2022-10-05T07:31:42.696Z,72.71
2022-10-05T07:34:49.747Z,72.51
2022-10-05T07:37:54.019Z,72.28
2022-10-05T07:40:33.265Z,72.13
2022-10-05T07:44:00.948Z,72.40
2022-10-05T07:46:27.182Z,72.31
2022-10-05T07:49:35.824Z,72.30
2022-10-05T07:52:34.348Z,71.83
2022-10-05T07:55:06.494Z,71.46
2022-10-05T07:58:07.218Z,71.25
2022-10-05T08:00:59.176Z,71.12
2022-10-05T08:03:58.187Z,70.67
2022-10-05T08:06:55.128Z,70.98
2022-10-05T08:09:55.240Z,71.30
2022-10-05T08:12:41.205Z,70.52
2022-10-05T08:15:21.033Z,70.79
2022-10-05T08:18:19.693Z,69.85
2022-10-05T08:20:56.267Z,70.20
2022-10-05T08:23:39.092Z,69.71
2022-10-05T08:26:37.896Z,70.22
2022-10-05T08:29:50.391Z,70.25
2022-10-05T08:32:30.653Z,69.62
2022-10-05T08:35:34.209Z,69.43
2022-10-05T08:38:18.839Z,69.33
2022-10-05T08:40:57.043Z,67.41
2022-10-05T08:44:12.099Z,66.50
2022-10-05T08:47:07.250Z,66.20
2022-10-05T08:50:04.209Z,66.40
2022-10-05T08:53:16.854Z,64.96
2022-10-05T08:56:38.795Z,64.94
2022-10-05T08:59:38.487Z,65.09
2022-10-05T09:02:32.651Z,63.31
2022-10-05T09:05:31.660Z,64.11
2022-10-05T09:08:51.648Z,63.69
2022-10-05T09:12:00.182Z,61.91
2022-10-05T09:14:56.626Z,61.53
2022-10-05T09:17:39.434Z,62.35
2022-10-05T09:20:32.609Z,62.81
2022-10-05T09:23:37.364Z,61.72
2022-10-05T09:26:31.956Z,61.25
2022-10-05T09:29:20.868Z,61.29
2022-10-05T09:32:16.366Z,61.84
2022-10-05T09:35:16.860Z,60.66
2022-10-05T09:38:16.975Z,60.48
2022-10-05T09:41:06.622Z,60.08
2022-10-05T09:44:17.210Z,60.06
2022-10-05T09:47:17.067Z,60.14
2022-10-05T09:50:00.402Z,58.60
2022-10-05T09:53:02.331Z,58.87
2022-10-05T09:56:05.560Z,59.31
2022-10-05T09:58:58.434Z,59.73
2022-10-05T10:02:10.143Z,60.05
2022-10-05T10:05:06.088Z,58.71
2022-10-05T10:08:29.110Z,58.23
2022-10-05T10:11:32.720Z,59.00
2022-10-05T10:14:25.218Z,57.82
2022-10-05T10:17:11.430Z,57.17
2022-10-05T10:20:04.550Z,56.80
2022-10-05T10:23:03.594Z,57.14
2022-10-05T10:25:46.976Z,57.53
2022-10-05T10:28:53.435Z,58.41
2022-10-05T10:31:53.774Z,58.34
2022-10-05T10:35:04.383Z,58.61
2022-10-05T10:37:43.293Z,58.45
2022-10-05T10:40:35.964Z,57.74
2022-10-05T10:43:53.233Z,57.64
2022-10-05T10:46:49.394Z,57.70
2022-10-05T10:49:36.522Z,57.34
2022-10-05T10:52:29.011Z,57.51
2022-10-05T10:55:31.134Z,57.79
2022-10-05T10:58:12.353Z,58.01
2022-10-05T11:01:08.477Z,58.18
2022-10-05T11:04:01.349Z,57.99
2022-10-05T11:06:54.555Z,57.97
2022-10-05T11:09:46.738Z,58.22
2022-10-05T11:13:02.971Z,58.02
2022-10-05T11:15:58.831Z,57.60
2022-10-05T11:18:54.383Z,57.55
2022-10-05T11:21:32.221Z,58.17
2022-10-05T11:24:23.944Z,58.11
2022-10-05T11:27:08.608Z,58.73
2022-10-05T11:30:11.640Z,58.69
2022-10-05T11:33:10.035Z,58.81
2022-10-05T11:36:09.431Z,58.47
2022-10-05T11:38:59.620Z,58.75
2022-10-05T11:42:09.476Z,58.48
2022-10-05T11:45:25.458Z,58.51
2022-10-05T11:48:31.434Z,58.21
2022-10-05T11:51:28.713Z,57.91
2022-10-05T11:54:08.418Z,58.24
2022-10-05T11:56:57.151Z,58.63
2022-10-05T11:59:46.318Z,58.07
2022-10-05T12:02:48.224Z,58.30
2022-10-05T12:05:51.608Z,57.87
2022-10-05T12:08:38.506Z,58.03
2022-10-05T12:11:32.747Z,58.50
2022-10-05T12:14:16.655Z,58.48
2022-10-05T12:17:28.698Z,58.16
2022-10-05T12:20:28.902Z,58.37
2022-10-05T12:23:18.126Z,58.73
2022-10-05T12:26:06.781Z,58.64
2022-10-05T12:29:08.988Z,58.34
2022-10-05T12:31:49.450Z,58.73
2022-10-05T12:34:44.802Z,58.46
2022-10-05T12:37:40.659Z,58.47
2022-10-05T12:40:46.959Z,58.08
2022-10-05T12:43:51.281Z,57.78
2022-10-05T12:46:35.024Z,57.92
2022-10-05T12:49:27.187Z,58.19
2022-10-05T12:52:02.388Z,58.89
2022-10-05T12:55:01.879Z,58.81
2022-10-05T12:57:46.181Z,58.91
2022-10-05T13:00:23.200Z,59.27
2022-10-05T13:03:03.473Z,59.61
2022-10-05T13:05:45.065Z,59.43
2022-10-05T13:08:53.365Z,59.49
2022-10-05T13:11:45.901Z,59.24
2022-10-05T13:14:46.175Z,59.40
2022-10-05T13:17:35.495Z,59.44
2022-10-05T13:20:28.438Z,59.53
2022-10-05T13:23:37.953Z,59.52
2022-10-05T13:26:18.602Z,58.84
2022-10-05T13:29:33.609Z,58.94
2022-10-05T13:32:10.565Z,58.81
2022-10-05T13:35:11.269Z,58.76
2022-10-05T13:38:01.943Z,58.21
2022-10-05T13:40:39.437Z,57.23
2022-10-05T13:43:39.704Z,57.54
2022-10-05T13:46:33.388Z,57.96
2022-10-05T13:49:32.817Z,57.48
2022-10-05T13:52:54.741Z,57.39
2022-10-05T13:55:52.862Z,57.53
2022-10-05T13:58:39.235Z,57.77
2022-10-05T14:01:37.756Z,57.84
2022-10-05T14:04:46.196Z,58.20
2022-10-05T14:08:05.248Z,58.15
2022-10-05T14:10:44.751Z,58.01
2022-10-05T14:13:37.344Z,58.06
2022-10-05T14:16:26.967Z,58.28
2022-10-05T14:19:07.187Z,58.02
2022-10-05T14:22:08.965Z,57.95
2022-10-05T14:25:10.384Z,58.09
2022-10-05T14:28:32.037Z,58.49
2022-10-05T14:31:17.564Z,58.85
2022-10-05T14:33:51.381Z,59.38
2022-10-05T14:36:40.259Z,59.34
2022-10-05T14:39:15.160Z,59.45
2022-10-05T14:41:50.901Z,59.63
2022-10-05T14:44:35.103Z,60.01
2022-10-05T14:47:23.627Z,60.32
2022-10-05T14:50:13.778Z,60.67
2022-10-05T14:53:08.552Z,60.91
2022-10-05T14:56:19.446Z,61.40
2022-10-05T14:59:23.561Z,61.69
2022-10-05T15:02:17.833Z,62.17
2022-10-05T15:05:03.940Z,62.63
2022-10-05T15:07:48.478Z,63.02
2022-10-05T15:10:35.918Z,63.51
2022-10-05T15:13:21.918Z,64.05
2022-10-05T15:16:05.928Z,64.49
2022-10-05T15:18:53.143Z,64.84
2022-10-05T15:21:54.334Z,65.26
2022-10-05T15:24:32.128Z,65.61
2022-10-05T15:27:06.888Z,65.77
2022-10-05T15:30:08.085Z,65.96
2022-10-05T15:33:00.458Z,66.33
2022-10-05T15:35:43.712Z,66.55
2022-10-05T15:38:26.029Z,66.92
2022-10-05T15:41:18.881Z,67.25
2022-10-05T15:44:06.132Z,67.58
2022-10-05T15:46:48.170Z,67.94
2022-10-05T15:49:33.172Z,68.43
2022-10-05T15:52:24.073Z,69.20
2022-10-05T15:55:27.852Z,69.92
2022-10-05T15:58:38.937Z,70.21
2022-10-05T16:01:34.237Z,70.39
2022-10-05T16:04:40.654Z,70.49
2022-10-05T16:07:36.192Z,70.54
2022-10-05T16:10:24.402Z,70.75
2022-10-05T16:13:27.300Z,70.96
2022-10-05T16:16:26.249Z,71.09
2022-10-05T16:19:12.823Z,71.55
2022-10-05T16:22:08.430Z,72.48
2022-10-05T16:25:10.292Z,73.23
2022-10-05T16:27:48.224Z,73.69
2022-10-05T16:30:24.410Z,74.33
2022-10-05T16:33:30.698Z,74.34
2022-10-05T16:36:25.641Z,74.20
2022-10-05T16:39:29.307Z,73.90
2022-10-05T16:42:14.532Z,74.03
2022-10-05T16:45:09.822Z,73.87
2022-10-05T16:48:27.651Z,73.82
2022-10-05T16:51:37.869Z,73.63
2022-10-05T16:54:31.875Z,73.27
2022-10-05T16:57:21.738Z,73.30
2022-10-05T17:00:28.855Z,73.51
2022-10-05T17:03:18.511Z,73.55
2022-10-05T17:06:22.367Z,73.62
2022-10-05T17:09:06.967Z,73.84
2022-10-05T17:12:16.310Z,74.54
2022-10-05T17:14:59.947Z,74.60
2022-10-05T17:18:15.024Z,74.39
2022-10-05T17:21:05.528Z,74.46
2022-10-05T17:23:54.788Z,74.68
2022-10-05T17:26:54.870Z,74.96
2022-10-05T17:29:52.212Z,75.03
2022-10-05T17:32:37.488Z,75.24
2022-10-05T17:35:18.803Z,75.27
2022-10-05T17:38:35.423Z,75.18
2022-10-05T17:41:28.508Z,75.28
2022-10-05T17:44:24.691Z,75.33
2022-10-05T17:47:04.117Z,75.61
2022-10-05T17:50:13.759Z,76.02
2022-10-05T17:53:05.822Z,76.36
2022-10-05T17:55:46.345Z,76.58
2022-10-05T17:58:32.840Z,76.59
2022-10-05T18:01:17.387Z,76.59
2022-10-05T18:03:52.639Z,76.55
2022-10-05T18:06:34.250Z,76.30
2022-10-05T18:09:23.571Z,76.17
2022-10-05T18:12:26.035Z,75.93
2022-10-05T18:15:08.405Z,75.69
2022-10-05T18:17:51.790Z,75.25
2022-10-05T18:20:31.877Z,74.79
2022-10-05T18:23:13.249Z,74.77
2022-10-05T18:26:12.627Z,74.38
2022-10-05T18:29:49.680Z,74.36
2022-10-05T18:32:53.638Z,74.39
2022-10-05T18:36:09.081Z,74.48
2022-10-05T18:39:05.209Z,74.42
2022-10-05T18:42:20.744Z,74.30
2022-10-05T18:45:30.236Z,74.47
2022-10-05T18:48:30.358Z,74.34
2022-10-05T18:51:35.832Z,74.50
2022-10-05T18:54:24.051Z,74.66
2022-10-05T18:56:57.523Z,74.79
2022-10-05T18:59:46.670Z,74.79
2022-10-05T19:02:51.581Z,74.85
2022-10-05T19:05:49.922Z,74.83
2022-10-05T19:08:54.480Z,74.90
2022-10-05T19:11:44.004Z,75.03
2022-10-05T19:14:46.020Z,75.26
2022-10-05T19:17:28.921Z,75.44
2022-10-05T19:20:26.098Z,75.61
2022-10-05T19:23:28.875Z,75.69
2022-10-05T19:26:16.387Z,75.87
2022-10-05T19:29:07.392Z,75.98
2022-10-05T19:32:03.135Z,76.08
2022-10-05T19:34:50.737Z,76.12
2022-10-05T19:37:34.174Z,76.23
2022-10-05T19:40:33.868Z,76.35
2022-10-05T19:43:38.897Z,76.60
2022-10-05T19:46:38.017Z,76.81
2022-10-05T19:49:12.152Z,76.99
2022-10-05T19:51:52.593Z,77.15
2022-10-05T19:54:29.679Z,77.43
2022-10-05T19:57:03.194Z,77.67
2022-10-05T19:59:37.973Z,77.93
2022-10-05T20:02:13.212Z,78.01
2022-10-05T20:04:49.818Z,78.06
2022-10-05T20:07:23.895Z,78.18
2022-10-05T20:10:27.283Z,78.37
2022-10-05T20:13:07.680Z,78.41
2022-10-05T20:15:59.135Z,78.60
2022-10-05T20:19:03.079Z,78.97
2022-10-05T20:21:51.367Z,79.24
2022-10-05T20:24:29.688Z,79.38
2022-10-05T20:27:06.032Z,79.26
2022-10-05T20:29:44.347Z,79.36
2022-10-05T20:32:19.043Z,79.48
2022-10-05T20:34:52.835Z,79.65
2022-10-05T20:37:26.578Z,79.83
2022-10-05T20:39:59.515Z,80.00
2022-10-05T20:42:33.274Z,80.05
2022-10-05T20:45:07.735Z,80.21
2022-10-05T20:47:42.435Z,80.13
2022-10-05T20:50:16.488Z,80.07
2022-10-05T20:52:50.069Z,80.14
2022-10-05T20:55:23.058Z,80.14
2022-10-05T20:57:57.021Z,80.27
2022-10-05T21:00:34.047Z,80.31
2022-10-05T21:03:06.490Z,80.45
2022-10-05T21:05:39.693Z,80.51
2022-10-05T21:08:12.763Z,80.44
2022-10-05T21:10:45.818Z,80.38
2022-10-05T21:13:18.893Z,80.31
2022-10-05T21:15:51.810Z,80.25
2022-10-05T21:18:25.293Z,80.25
2022-10-05T21:21:02.088Z,80.24
2022-10-05T21:23:36.310Z,80.29
2022-10-05T21:26:09.315Z,80.31
2022-10-05T21:28:43.134Z,80.24
2022-10-05T21:31:15.874Z,80.47
2022-10-05T21:33:48.913Z,80.65
2022-10-05T21:36:24.754Z,80.57
2022-10-05T21:38:58.058Z,80.41
2022-10-05T21:41:30.923Z,80.31
2022-10-05T21:44:04.444Z,80.39
2022-10-05T21:46:38.055Z,80.42
2022-10-05T21:49:11.186Z,80.73
2022-10-05T21:51:45.090Z,80.90
2022-10-05T21:54:21.089Z,81.23
2022-10-05T21:56:56.091Z,81.26
2022-10-05T21:59:32.733Z,81.47
2022-10-05T22:02:06.263Z,81.46
2022-10-05T22:04:39.008Z,81.43
2022-10-05T22:07:20.302Z,81.63
2022-10-05T22:09:53.793Z,81.57
2022-10-05T22:12:27.005Z,81.76
2022-10-05T22:15:00.264Z,81.95
2022-10-05T22:17:33.561Z,81.98
2022-10-05T22:20:07.914Z,82.03
2022-10-05T22:22:40.900Z,82.05
2022-10-05T22:25:14.416Z,82.19
2022-10-05T22:27:47.438Z,82.26
2022-10-05T22:30:20.528Z,82.52
2022-10-05T22:32:53.813Z,82.67
2022-10-05T22:35:27.034Z,82.85
2022-10-05T22:37:59.667Z,83.03
2022-10-05T22:40:32.659Z,83.04
2022-10-05T22:43:06.035Z,83.12
2022-10-05T22:45:38.890Z,83.08
2022-10-05T22:48:12.313Z,83.05
2022-10-05T22:50:49.580Z,82.96
2022-10-05T22:53:22.872Z,82.85
2022-10-05T22:55:55.830Z,83.02
2022-10-05T22:58:29.392Z,83.17
2022-10-05T23:01:08.777Z,83.26
2022-10-05T23:03:42.302Z,83.21
2022-10-05T23:06:21.459Z,83.23
2022-10-05T23:08:55.338Z,83.21
2022-10-05T23:11:31.650Z,83.21
2022-10-05T23:14:04.387Z,83.21
2022-10-05T23:16:37.393Z,83.10
2022-10-05T23:19:12.636Z,83.06
2022-10-05T23:21:46.088Z,83.17
2022-10-05T23:24:19.514Z,83.34
2022-10-05T23:26:52.390Z,83.62
2022-10-05T23:29:25.205Z,83.69
2022-10-05T23:31:58.550Z,84.00
2022-10-05T23:34:31.547Z,84.15
2022-10-05T23:37:04.568Z,84.29
2022-10-05T23:39:37.593Z,84.40
2022-10-05T23:42:10.841Z,84.54
2022-10-05T23:44:43.674Z,84.84
2022-10-05T23:47:16.995Z,85.00
2022-10-05T23:49:49.844Z,85.03
2022-10-05T23:52:23.260Z,84.85
2022-10-05T23:54:56.535Z,84.77
2022-10-05T23:57:29.559Z,84.88
